Time;durP1;ratioP1;P1;durP2;ratioP2;P2;SDS_P1;SDS_P2;PMS_P1;PMS_P2;Temp;Humidity;BMP_temperature;BMP_pressure;BME280_temperature;BME280_humidity;BME280_pressure;Samples;Min_cycle;Max_cycle;Signal;HPM_P1;HPM_P2
2022/06/11 00:01:19;;;;;;;3.97;2.37;;;;;;;;;;5053291;28;20177;-65
2022/06/11 00:03:46;;;;;;;3.97;2.20;;;;;;;;;;5053281;28;20202;-65
2022/06/11 00:06:12;;;;;;;2.90;2.10;;;;;;;;;;5053256;28;20183;-65
2022/06/11 00:08:38;;;;;;;3.30;2.13;;;;;;;;;;5053306;28;20216;-65
2022/06/11 00:11:05;;;;;;;4.33;2.50;;;;;;;;;;5052128;28;20229;-65
2022/06/11 00:13:31;;;;;;;2.67;2.27;;;;;;;;;;5053610;28;20178;-65
2022/06/11 00:15:57;;;;;;;3.27;2.20;;;;;;;;;;5052123;28;20210;-66
2022/06/11 00:18:24;;;;;;;2.70;2.00;;;;;;;;;;5051927;28;20179;-65
2022/06/11 00:20:50;;;;;;;3.80;2.27;;;;;;;;;;5051757;28;20210;-66
2022/06/11 00:23:16;;;;;;;4.03;2.50;;;;;;;;;;5052903;28;20203;-65
2022/06/11 00:25:42;;;;;;;4.43;2.30;;;;;;;;;;5051957;28;20186;-65
2022/06/11 00:28:09;;;;;;;4.10;2.67;;;;;;;;;;5051733;28;20179;-65
2022/06/11 00:30:36;;;;;;;2.63;2.10;;;;;;;;;;5051728;28;20553;-65
2022/06/11 00:33:06;;;;;;;3.00;2.30;;;;;;;;;;5051909;28;20583;-65
2022/06/11 00:35:32;;;;;;;3.33;2.37;;;;;;;;;;5053050;28;20626;-66
2022/06/11 00:37:58;;;;;;;6.93;2.30;;;;;;;;;;5052013;28;20198;-65
2022/06/11 00:40:26;;;;;;;5.90;2.70;;;;;;;;;;5053477;28;20280;-65
2022/06/11 00:42:52;;;;;;;2.30;2.10;;;;;;;;;;5051931;28;20548;-65
2022/06/11 00:45:22;;;;;;;4.13;2.57;;;;;;;;;;5052150;28;20182;-65
2022/06/11 00:47:50;;;;;;;3.93;2.73;;;;;;;;;;5053435;28;20171;-65
2022/06/11 00:50:22;;;;;;;7.63;2.53;;;;;;;;;;5052148;28;20612;-65
2022/06/11 00:52:49;;;;;;;3.33;2.20;;;;;;;;;;5051763;28;20244;-65
2022/06/11 00:55:25;;;;;;;2.40;2.20;;;;;;;;;;5053737;28;20261;-66
2022/06/11 00:57:54;;;;;;;3.77;2.87;;;;;;;;;;5053343;28;20197;-66
2022/06/11 01:00:23;;;;;;;5.17;2.97;;;;;;;;;;5053030;28;20613;-65
2022/06/11 01:02:49;;;;;;;5.03;2.40;;;;;;;;;;5053063;28;20213;-66
2022/06/11 01:05:26;;;;;;;3.97;2.30;;;;;;;;;;5051860;28;20197;-66
2022/06/11 01:07:52;;;;;;;2.77;2.43;;;;;;;;;;5053647;28;20614;-65
2022/06/11 01:10:33;;;;;;;4.63;2.70;;;;;;;;;;5053851;28;20216;-66
2022/06/11 01:13:08;;;;;;;4.30;2.60;;;;;;;;;;5055539;28;20195;-66
2022/06/11 01:15:46;;;;;;;4.23;2.77;;;;;;;;;;5056954;28;20185;-65
2022/06/11 01:18:25;;;;;;;7.27;3.27;;;;;;;;;;5055372;28;20198;-65
2022/06/11 01:21:11;;;;;;;4.60;3.17;;;;;;;;;;5056825;28;20167;-66
2022/06/11 01:23:54;;;;;;;4.43;2.70;;;;;;;;;;5057078;28;20169;-65
2022/06/11 01:26:29;;;;;;;5.87;2.90;;;;;;;;;;5056875;28;20194;-65
2022/06/11 01:29:14;;;;;;;4.90;2.97;;;;;;;;;;5056373;28;20558;-65
2022/06/11 01:32:01;;;;;;;4.53;2.73;;;;;;;;;;5054987;28;20232;-66
2022/06/11 01:34:45;;;;;;;4.57;2.63;;;;;;;;;;5054954;28;20182;-68
2022/06/11 01:37:24;;;;;;;3.97;3.00;;;;;;;;;;5056492;28;20296;-65
2022/06/11 01:39:55;;;;;;;7.57;3.23;;;;;;;;;;5054858;28;20231;-66
2022/06/11 01:42:28;;;;;;;4.40;3.10;;;;;;;;;;5056369;28;20185;-66
2022/06/11 01:45:20;;;;;;;4.10;3.00;;;;;;;;;;5056354;28;20185;-65
2022/06/11 01:47:47;;;;;;;3.87;2.57;;;;;;;;;;5053435;28;20260;-65
2022/06/11 01:50:16;;;;;;;2.90;2.70;;;;;;;;;;5055948;28;20203;-65
2022/06/11 01:52:51;;;;;;;7.63;4.20;;;;;;;;;;5055743;28;20174;-66
2022/06/11 01:55:31;;;;;;;5.20;3.53;;;;;;;;;;5056170;28;20182;-65
2022/06/11 01:58:09;;;;;;;6.73;3.17;;;;;;;;;;5055754;28;20606;-65
2022/06/11 02:00:37;;;;;;;7.93;3.43;;;;;;;;;;5055608;28;20270;-65
2022/06/11 02:03:12;;;;;;;8.43;3.60;;;;;;;;;;5054408;28;20681;-66
2022/06/11 02:05:57;;;;;;;5.07;3.23;;;;;;;;;;5055795;28;20589;-65
2022/06/11 02:08:33;;;;;;;6.23;3.77;;;;;;;;;;5055565;28;20550;-65
2022/06/11 02:11:18;;;;;;;8.93;4.50;;;;;;;;;;5055479;28;20173;-65
2022/06/11 02:13:44;;;;;;;11.63;4.57;;;;;;;;;;5054370;28;20178;-66
2022/06/11 02:16:18;;;;;;;7.37;4.10;;;;;;;;;;5055315;28;20178;-65
2022/06/11 02:18:45;;;;;;;9.27;4.07;;;;;;;;;;5055590;28;20195;-66
2022/06/11 02:21:17;;;;;;;6.30;3.73;;;;;;;;;;5055332;28;20182;-66
2022/06/11 02:23:49;;;;;;;8.10;4.37;;;;;;;;;;5055274;28;20630;-65
2022/06/11 02:26:17;;;;;;;4.70;3.30;;;;;;;;;;5055248;28;20209;-66
2022/06/11 02:28:45;;;;;;;7.93;4.20;;;;;;;;;;5055347;28;20194;-65
2022/06/11 02:31:12;;;;;;;7.73;3.63;;;;;;;;;;5055009;28;20167;-65
2022/06/11 02:33:40;;;;;;;6.13;3.47;;;;;;;;;;5055424;28;20541;-65
2022/06/11 02:36:15;;;;;;;6.50;3.33;;;;;;;;;;5053765;28;20236;-65
2022/06/11 02:38:41;;;;;;;6.60;3.50;;;;;;;;;;5055277;28;20196;-65
2022/06/11 02:41:10;;;;;;;8.07;4.27;;;;;;;;;;5054848;28;20254;-65
2022/06/11 02:43:36;;;;;;;5.27;3.40;;;;;;;;;;5055917;28;20244;-65
2022/06/11 02:46:40;;;;;;;5.60;3.97;;;;;;;;;;5054729;28;20182;-65
2022/06/11 02:48:51;;;;;;;5.50;3.70;;;;;;;;;;5054443;28;20210;-65
2022/06/11 02:51:17;;;;;;;6.53;3.77;;;;;;;;;;5054751;28;20699;-65
2022/06/11 02:53:43;;;;;;;6.23;3.80;;;;;;;;;;5055216;28;20174;-65
2022/06/11 02:56:09;;;;;;;6.80;3.90;;;;;;;;;;5054607;28;20197;-66
2022/06/11 02:58:35;;;;;;;6.37;3.87;;;;;;;;;;5053200;28;20198;-65
2022/06/11 03:01:01;;;;;;;3.90;3.50;;;;;;;;;;5054826;28;20186;-65
2022/06/11 03:03:27;;;;;;;5.93;3.80;;;;;;;;;;5054367;28;20182;-65
2022/06/11 03:05:53;;;;;;;8.17;3.70;;;;;;;;;;5054566;28;20182;-65
2022/06/11 03:08:19;;;;;;;4.47;3.60;;;;;;;;;;5054277;28;20189;-65
2022/06/11 03:10:45;;;;;;;7.33;3.70;;;;;;;;;;5054431;28;20195;-66
2022/06/11 03:13:11;;;;;;;5.40;3.90;;;;;;;;;;5053043;28;20665;-65
2022/06/11 03:15:37;;;;;;;4.33;3.53;;;;;;;;;;5052844;28;20182;-67
2022/06/11 03:18:03;;;;;;;7.50;4.03;;;;;;;;;;5052932;28;20202;-65
2022/06/11 03:20:30;;;;;;;6.30;3.83;;;;;;;;;;5052783;28;20682;-65
2022/06/11 03:22:57;;;;;;;5.67;3.87;;;;;;;;;;5055090;28;20178;-66
2022/06/11 03:25:23;;;;;;;5.33;3.57;;;;;;;;;;5054390;28;20249;-65
2022/06/11 03:27:50;;;;;;;5.80;3.80;;;;;;;;;;5054551;28;20253;-65
2022/06/11 03:30:16;;;;;;;6.30;3.70;;;;;;;;;;5053894;28;20205;-66
2022/06/11 03:32:43;;;;;;;6.93;3.60;;;;;;;;;;5052764;28;20178;-66
2022/06/11 03:35:10;;;;;;;4.30;3.50;;;;;;;;;;5053067;28;20552;-65
2022/06/11 03:37:36;;;;;;;8.07;3.70;;;;;;;;;;5053812;28;20615;-65
2022/06/11 03:40:02;;;;;;;7.73;3.93;;;;;;;;;;5052555;28;20198;-66
2022/06/11 03:42:28;;;;;;;4.37;3.70;;;;;;;;;;5054054;28;20213;-66
2022/06/11 03:44:54;;;;;;;6.37;3.80;;;;;;;;;;5052417;28;20610;-66
2022/06/11 03:47:20;;;;;;;4.67;3.77;;;;;;;;;;5053851;28;20180;-65
2022/06/11 03:49:46;;;;;;;5.30;4.00;;;;;;;;;;5053606;28;20241;-65
2022/06/11 03:52:12;;;;;;;5.70;3.93;;;;;;;;;;5053868;28;20202;-65
2022/06/11 03:54:39;;;;;;;8.97;3.97;;;;;;;;;;5054737;28;20666;-66
2022/06/11 03:57:05;;;;;;;4.90;3.80;;;;;;;;;;5052412;28;20209;-66
2022/06/11 03:59:31;;;;;;;4.93;3.37;;;;;;;;;;5054043;28;20531;-65
2022/06/11 04:01:57;;;;;;;6.63;3.73;;;;;;;;;;5053481;28;20677;-65
2022/06/11 04:04:23;;;;;;;6.77;3.73;;;;;;;;;;5052192;28;20207;-65
2022/06/11 04:06:51;;;;;;;4.70;3.47;;;;;;;;;;5053815;28;20178;-65
2022/06/11 04:09:20;;;;;;;4.73;3.57;;;;;;;;;;5053407;28;20224;-65
2022/06/11 04:11:46;;;;;;;5.97;3.70;;;;;;;;;;5051990;28;20186;-65
2022/06/11 04:14:12;;;;;;;6.83;3.80;;;;;;;;;;5053349;28;20239;-66
2022/06/11 04:16:43;;;;;;;7.13;3.50;;;;;;;;;;5053041;28;20209;-66
2022/06/11 04:19:13;;;;;;;5.23;3.53;;;;;;;;;;5052302;28;20194;-66
2022/06/11 04:21:39;;;;;;;9.03;4.13;;;;;;;;;;5053185;28;20228;-65
2022/06/11 04:26:41;;;;;;;8.77;4.73;;;;;;;;;;5032201;28;20218;-65
2022/06/11 04:29:08;;;;;;;4.07;3.37;;;;;;;;;;5016168;28;20558;-65
2022/06/11 04:31:35;;;;;;;3.83;3.33;;;;;;;;;;5015873;28;20183;-65
2022/06/11 04:34:01;;;;;;;4.10;3.47;;;;;;;;;;5033546;28;20225;-64
2022/06/11 04:36:29;;;;;;;4.07;3.30;;;;;;;;;;5015525;28;20211;-65
2022/06/11 04:38:55;;;;;;;6.23;3.70;;;;;;;;;;5033088;28;20266;-64
2022/06/11 04:41:22;;;;;;;4.83;3.40;;;;;;;;;;5015459;28;20179;-65
2022/06/11 04:43:47;;;;;;;4.80;4.40;;;;;;;;;;5015486;28;20182;-65
2022/06/11 04:46:13;;;;;;;4.37;3.97;;;;;;;;;;5017822;28;20622;-63
2022/06/11 04:48:40;;;;;;;4.57;3.87;;;;;;;;;;5019741;28;20186;-65
2022/06/11 04:51:06;;;;;;;7.13;3.80;;;;;;;;;;5037066;28;20189;-64
2022/06/11 04:53:32;;;;;;;4.77;3.37;;;;;;;;;;5037080;28;20186;-65
2022/06/11 04:55:58;;;;;;;3.93;2.77;;;;;;;;;;5019225;28;20202;-66
2022/06/11 04:58:24;;;;;;;5.27;2.73;;;;;;;;;;5019137;28;20675;-66
2022/06/11 05:00:50;;;;;;;3.63;2.53;;;;;;;;;;5037581;28;20175;-66
2022/06/11 05:03:16;;;;;;;5.53;2.60;;;;;;;;;;5036830;28;20186;-67
2022/06/11 05:05:42;;;;;;;2.90;2.60;;;;;;;;;;5036954;28;20265;-66
2022/06/11 05:08:09;;;;;;;2.63;2.43;;;;;;;;;;5037015;28;20245;-66
2022/06/11 05:10:35;;;;;;;4.47;2.90;;;;;;;;;;5036962;28;20191;-66
2022/06/11 05:13:02;;;;;;;3.80;2.30;;;;;;;;;;5019624;28;20190;-66
2022/06/11 05:15:28;;;;;;;4.43;2.63;;;;;;;;;;5036975;28;20203;-66
2022/06/11 05:17:54;;;;;;;2.53;2.33;;;;;;;;;;5018830;28;20698;-66
2022/06/11 05:20:21;;;;;;;2.40;2.20;;;;;;;;;;5036554;28;20211;-66
2022/06/11 05:22:47;;;;;;;3.97;2.65;;;;;;;;;;5035353;28;20375;-67
2022/06/11 05:25:15;;;;;;;4.27;2.90;;;;;;;;;;5044773;28;20590;-65
2022/06/11 05:27:42;;;;;;;5.90;2.90;;;;;;;;;;5038600;28;20178;-66
2022/06/11 05:30:12;;;;;;;7.90;3.10;;;;;;;;;;5056738;28;20229;-66
2022/06/11 05:32:41;;;;;;;3.87;2.57;;;;;;;;;;5038294;28;20240;-67
2022/06/11 05:35:09;;;;;;;3.60;3.03;;;;;;;;;;5038617;28;20620;-66
2022/06/11 05:37:35;;;;;;;4.40;3.27;;;;;;;;;;5056428;28;20210;-66
2022/06/11 05:40:01;;;;;;;5.97;3.20;;;;;;;;;;5056834;28;20185;-66
2022/06/11 05:42:28;;;;;;;3.67;2.80;;;;;;;;;;5038240;28;20175;-65
2022/06/11 05:44:54;;;;;;;7.57;3.60;;;;;;;;;;5056134;28;20209;-65
2022/06/11 05:47:22;;;;;;;6.47;3.10;;;;;;;;;;5055946;28;20179;-67
2022/06/11 05:49:50;;;;;;;8.77;3.17;;;;;;;;;;5056284;28;20179;-66
2022/06/11 05:52:18;;;;;;;4.90;3.27;;;;;;;;;;5056829;28;20550;-65
2022/06/11 05:54:46;;;;;;;7.77;2.87;;;;;;;;;;5055862;28;20220;-66
2022/06/11 05:57:13;;;;;;;4.00;3.23;;;;;;;;;;5036889;28;20245;-65
2022/06/11 05:59:43;;;;;;;4.87;3.17;;;;;;;;;;5038127;28;20181;-67
2022/06/11 06:02:10;;;;;;;5.33;3.50;;;;;;;;;;5055885;28;20166;-64
2022/06/11 06:04:37;;;;;;;6.07;3.50;;;;;;;;;;5055928;28;20622;-65
2022/06/11 06:07:05;;;;;;;4.47;2.87;;;;;;;;;;5056488;28;20194;-65
2022/06/11 06:09:30;;;;;;;4.67;3.70;;;;;;;;;;5056195;28;20174;-64
2022/06/11 06:11:56;;;;;;;5.37;3.40;;;;;;;;;;5037948;28;20291;-66
2022/06/11 06:14:22;;;;;;;5.17;3.20;;;;;;;;;;5055403;28;20186;-65
2022/06/11 06:16:48;;;;;;;4.20;3.00;;;;;;;;;;5055358;28;20198;-65
2022/06/11 06:19:14;;;;;;;4.40;2.47;;;;;;;;;;5056291;28;20642;-66
2022/06/11 06:21:40;;;;;;;7.90;3.07;;;;;;;;;;5037430;28;20179;-65
2022/06/11 06:24:07;;;;;;;5.47;2.90;;;;;;;;;;5055859;28;20193;-64
2022/06/11 06:26:34;;;;;;;3.37;2.67;;;;;;;;;;5037493;28;20194;-65
2022/06/11 06:29:00;;;;;;;4.20;2.70;;;;;;;;;;5037394;28;20182;-66
2022/06/11 06:31:26;;;;;;;7.37;3.33;;;;;;;;;;5037141;28;20212;-67
2022/06/11 06:33:53;;;;;;;4.33;3.10;;;;;;;;;;5037299;28;20217;-65
2022/06/11 06:36:19;;;;;;;5.27;3.27;;;;;;;;;;5037051;28;20217;-66
2022/06/11 06:38:46;;;;;;;3.27;2.60;;;;;;;;;;5037015;28;20174;-65
2022/06/11 06:41:13;;;;;;;3.13;2.57;;;;;;;;;;5055176;28;20630;-65
2022/06/11 06:43:39;;;;;;;5.50;3.53;;;;;;;;;;5054955;28;20171;-66
2022/06/11 06:46:05;;;;;;;6.13;3.13;;;;;;;;;;5037793;28;20615;-66
2022/06/11 06:48:31;;;;;;;4.03;2.40;;;;;;;;;;5037604;28;20178;-66
2022/06/11 06:50:58;;;;;;;7.20;3.27;;;;;;;;;;5037190;28;20182;-67
2022/06/11 06:53:25;;;;;;;2.80;2.17;;;;;;;;;;5055768;28;20178;-65
2022/06/11 06:55:51;;;;;;;3.53;2.60;;;;;;;;;;5037781;28;20202;-66
2022/06/11 06:58:17;;;;;;;6.30;3.27;;;;;;;;;;5055814;28;20255;-66
2022/06/11 07:00:44;;;;;;;4.33;2.97;;;;;;;;;;5038110;28;20182;-66
2022/06/11 07:03:12;;;;;;;3.90;3.10;;;;;;;;;;5056102;28;20272;-64
2022/06/11 07:05:38;;;;;;;3.97;2.70;;;;;;;;;;5038118;28;20202;-65
2022/06/11 07:08:05;;;;;;;2.50;2.30;;;;;;;;;;5055090;28;20184;-66
2022/06/11 07:10:31;;;;;;;4.67;3.10;;;;;;;;;;5037033;28;20197;-66
2022/06/11 07:12:57;;;;;;;2.80;2.37;;;;;;;;;;5036634;28;20186;-67
2022/06/11 07:15:23;;;;;;;4.30;3.00;;;;;;;;;;5054591;28;20198;-66
2022/06/11 07:17:52;;;;;;;3.80;2.80;;;;;;;;;;5054449;28;20206;-66
2022/06/11 07:20:20;;;;;;;3.57;3.03;;;;;;;;;;5054565;28;20579;-66
2022/06/11 07:23:07;;;;;;;4.47;2.57;;;;;;;;;;5054684;28;20206;-66
2022/06/11 07:25:33;;;;;;;3.10;2.63;;;;;;;;;;5054600;28;20214;-67
2022/06/11 07:28:04;;;;;;;4.53;2.60;;;;;;;;;;5037151;28;20588;-67
2022/06/11 07:30:33;;;;;;;5.07;2.70;;;;;;;;;;5037113;28;20232;-67
2022/06/11 07:33:02;;;;;;;3.73;2.53;;;;;;;;;;5054654;28;20178;-66
2022/06/11 07:35:28;;;;;;;3.43;2.80;;;;;;;;;;5054848;28;20658;-67
2022/06/11 07:37:55;;;;;;;3.63;2.83;;;;;;;;;;5036516;28;20210;-64
2022/06/11 07:40:21;;;;;;;6.23;3.03;;;;;;;;;;5036295;28;20182;-65
2022/06/11 07:42:47;;;;;;;4.47;2.67;;;;;;;;;;5053821;28;20218;-65
2022/06/11 07:45:14;;;;;;;4.47;3.03;;;;;;;;;;5053859;28;20287;-66
2022/06/11 07:47:55;;;;;;;6.00;3.20;;;;;;;;;;5053939;28;20193;-66
2022/06/11 07:50:29;;;;;;;5.10;3.20;;;;;;;;;;5055504;28;20645;-66
2022/06/11 07:52:56;;;;;;;6.90;3.40;;;;;;;;;;5036410;28;20188;-66
2022/06/11 07:55:22;;;;;;;4.13;3.20;;;;;;;;;;5053693;28;20201;-66
2022/06/11 07:57:48;;;;;;;2.97;2.40;;;;;;;;;;5054618;28;20202;-66
2022/06/11 08:00:17;;;;;;;7.60;2.60;;;;;;;;;;5037185;28;20190;-66
2022/06/11 08:02:43;;;;;;;5.10;2.43;;;;;;;;;;5055315;28;20182;-68
2022/06/11 08:05:09;;;;;;;3.73;2.10;;;;;;;;;;5036805;28;20209;-66
2022/06/11 08:07:35;;;;;;;4.87;2.37;;;;;;;;;;5056026;28;20661;-68
2022/06/11 08:10:02;;;;;;;4.40;2.70;;;;;;;;;;5055721;28;20178;-65
2022/06/11 08:12:28;;;;;;;4.37;2.40;;;;;;;;;;5037037;28;20646;-66
2022/06/11 08:14:56;;;;;;;4.33;2.60;;;;;;;;;;5035683;28;20206;-66
2022/06/11 08:17:23;;;;;;;6.23;2.50;;;;;;;;;;5053590;28;20233;-67
2022/06/11 08:19:49;;;;;;;3.77;2.50;;;;;;;;;;5053240;28;20181;-67
2022/06/11 08:22:15;;;;;;;3.87;2.60;;;;;;;;;;5035841;28;20182;-67
2022/06/11 08:24:41;;;;;;;5.00;2.87;;;;;;;;;;5053464;28;20232;-66
2022/06/11 08:27:07;;;;;;;5.00;2.60;;;;;;;;;;5053595;28;20190;-67
2022/06/11 08:29:33;;;;;;;4.07;2.50;;;;;;;;;;5053725;28;20174;-67
2022/06/11 08:31:59;;;;;;;3.83;2.17;;;;;;;;;;5035408;28;20270;-65
2022/06/11 08:34:25;;;;;;;5.90;2.60;;;;;;;;;;5053115;28;20185;-66
2022/06/11 08:36:51;;;;;;;5.17;2.00;;;;;;;;;;5053439;28;20230;-67
2022/06/11 08:39:17;;;;;;;5.03;2.57;;;;;;;;;;5053039;28;20174;-66
2022/06/11 08:41:43;;;;;;;4.60;2.33;;;;;;;;;;5057012;28;20174;-66
2022/06/11 08:44:11;;;;;;;2.67;2.40;;;;;;;;;;5036522;28;20182;-67
2022/06/11 08:46:38;;;;;;;5.33;1.90;;;;;;;;;;5035272;28;20183;-66
2022/06/11 08:49:04;;;;;;;4.97;2.40;;;;;;;;;;5053932;28;20189;-65
2022/06/11 08:51:36;;;;;;;5.17;2.20;;;;;;;;;;5053662;28;20184;-66
2022/06/11 08:54:04;;;;;;;4.73;2.27;;;;;;;;;;5053336;28;20233;-66
2022/06/11 08:56:38;;;;;;;5.47;2.57;;;;;;;;;;5053085;28;20198;-66
2022/06/11 08:59:07;;;;;;;3.93;2.40;;;;;;;;;;5054838;28;20163;-66
2022/06/11 09:01:39;;;;;;;3.90;2.20;;;;;;;;;;5058954;28;20179;-66
2022/06/11 09:04:30;;;;;;;3.63;2.40;;;;;;;;;;5060548;28;20183;-66
2022/06/11 09:06:56;;;;;;;5.20;2.30;;;;;;;;;;5059642;28;20178;-65
2022/06/11 09:09:41;;;;;;;3.50;2.30;;;;;;;;;;5062136;28;20182;-67
2022/06/11 09:12:13;;;;;;;5.50;2.10;;;;;;;;;;5061387;28;20254;-66
2022/06/11 09:14:46;;;;;;;7.10;2.60;;;;;;;;;;5056323;28;20199;-67
2022/06/11 09:17:42;;;;;;;4.27;2.03;;;;;;;;;;5055936;28;20244;-66
2022/06/11 09:20:17;;;;;;;5.37;2.40;;;;;;;;;;5032424;28;20689;-66
2022/06/11 09:22:55;;;;;;;5.43;1.97;;;;;;;;;;5056292;28;20178;-66
2022/06/11 09:25:40;;;;;;;5.33;2.73;;;;;;;;;;5052643;28;20212;-66
2022/06/11 09:28:25;;;;;;;4.90;2.70;;;;;;;;;;5035154;28;20634;-70
2022/06/11 09:30:59;;;;;;;7.13;2.33;;;;;;;;;;5053254;28;20225;-66
2022/06/11 09:33:29;;;;;;;4.90;2.33;;;;;;;;;;5056784;28;20623;-67
2022/06/11 09:36:02;;;;;;;7.20;2.60;;;;;;;;;;5056860;28;20252;-68
2022/06/11 09:38:39;;;;;;;5.90;2.70;;;;;;;;;;5038441;28;20206;-66
2022/06/11 09:41:10;;;;;;;3.90;2.23;;;;;;;;;;5056486;28;20159;-66
2022/06/11 09:43:48;;;;;;;3.97;3.10;;;;;;;;;;5056262;28;20246;-66
2022/06/11 09:46:27;;;;;;;3.27;2.70;;;;;;;;;;5038305;28;20206;-66
2022/06/11 09:48:53;;;;;;;7.63;3.00;;;;;;;;;;5056356;28;20517;-66
2022/06/11 09:51:22;;;;;;;5.10;3.27;;;;;;;;;;5056457;28;20232;-66
2022/06/11 09:54:05;;;;;;;4.53;2.80;;;;;;;;;;5056557;28;20214;-66
2022/06/11 09:56:31;;;;;;;6.93;3.20;;;;;;;;;;5037935;28;20220;-66
2022/06/11 09:59:12;;;;;;;5.10;3.20;;;;;;;;;;5056119;28;20174;-66
2022/06/11 10:01:48;;;;;;;6.03;3.30;;;;;;;;;;5037836;28;20182;-65
2022/06/11 10:04:16;;;;;;;4.37;3.00;;;;;;;;;;5055726;28;20228;-66
2022/06/11 10:07:08;;;;;;;4.57;2.47;;;;;;;;;;5055750;28;20189;-67
2022/06/11 10:09:41;;;;;;;4.10;2.50;;;;;;;;;;5051380;28;20190;-66
2022/06/11 10:12:10;;;;;;;5.97;3.00;;;;;;;;;;5055740;28;20175;-66
2022/06/11 10:14:42;;;;;;;5.90;2.63;;;;;;;;;;5037866;28;20202;-65
2022/06/11 10:17:15;;;;;;;4.87;2.53;;;;;;;;;;5055486;28;20202;-66
2022/06/11 10:19:45;;;;;;;7.97;2.83;;;;;;;;;;5037791;28;20202;-66
2022/06/11 10:22:20;;;;;;;6.07;3.00;;;;;;;;;;5056198;28;20661;-66
2022/06/11 10:25:04;;;;;;;6.17;3.10;;;;;;;;;;5037176;28;20264;-66
2022/06/11 10:27:33;;;;;;;4.13;2.90;;;;;;;;;;5037618;28;20175;-66
2022/06/11 10:30:02;;;;;;;3.60;3.10;;;;;;;;;;5055422;28;20179;-66
2022/06/11 10:32:39;;;;;;;7.43;3.63;;;;;;;;;;5055410;28;20174;-66
2022/06/11 10:35:14;;;;;;;6.20;2.77;;;;;;;;;;5037316;28;20233;-66
2022/06/11 10:37:46;;;;;;;3.27;2.37;;;;;;;;;;5037078;28;20557;-67
2022/06/11 10:40:19;;;;;;;4.80;2.77;;;;;;;;;;5037397;28;20297;-67
2022/06/11 10:42:51;;;;;;;5.20;2.60;;;;;;;;;;5055110;28;20222;-66
2022/06/11 10:45:17;;;;;;;4.23;2.50;;;;;;;;;;5037043;28;20201;-66
2022/06/11 10:47:48;;;;;;;5.10;2.47;;;;;;;;;;5037146;28;20186;-67
2022/06/11 10:50:20;;;;;;;3.27;2.40;;;;;;;;;;5055121;28;20175;-66
2022/06/11 10:52:49;;;;;;;4.10;2.60;;;;;;;;;;5054983;28;20163;-67
2022/06/11 10:55:27;;;;;;;5.23;2.43;;;;;;;;;;5054634;28;20563;-66
2022/06/11 10:57:54;;;;;;;3.10;2.37;;;;;;;;;;5054695;28;20198;-66
2022/06/11 11:00:28;;;;;;;5.33;2.17;;;;;;;;;;5036472;28;20265;-66
2022/06/11 11:02:56;;;;;;;3.30;1.97;;;;;;;;;;5054623;28;20179;-65
2022/06/11 11:05:23;;;;;;;4.73;2.03;;;;;;;;;;5054018;28;20199;-67
2022/06/11 11:07:55;;;;;;;2.77;1.87;;;;;;;;;;5036744;28;20229;-66
2022/06/11 11:10:24;;;;;;;3.83;2.20;;;;;;;;;;5054625;28;20185;-66
2022/06/11 11:12:52;;;;;;;4.83;2.30;;;;;;;;;;5054549;28;20699;-67
2022/06/11 11:15:19;;;;;;;5.50;2.67;;;;;;;;;;5054824;28;20190;-67
2022/06/11 11:18:06;;;;;;;1.97;1.50;;;;;;;;;;5054155;28;20765;-73
2022/06/11 11:20:38;;;;;;;4.97;1.80;;;;;;;;;;5053881;28;20709;-67
2022/06/11 11:23:10;;;;;;;3.60;1.90;;;;;;;;;;5036336;28;20269;-66
2022/06/11 11:25:41;;;;;;;4.57;2.23;;;;;;;;;;5036225;28;20241;-67
2022/06/11 11:28:15;;;;;;;2.73;1.83;;;;;;;;;;5054778;28;20508;-67
2022/06/11 11:30:41;;;;;;;6.80;1.80;;;;;;;;;;5054362;28;20524;-67
2022/06/11 11:33:22;;;;;;;2.83;2.00;;;;;;;;;;5053917;28;20202;-66
2022/06/11 11:35:48;;;;;;;3.73;1.80;;;;;;;;;;5054187;28;20224;-67
2022/06/11 11:38:17;;;;;;;3.53;2.00;;;;;;;;;;5054074;28;20281;-67
2022/06/11 11:40:56;;;;;;;2.80;1.75;;;;;;;;;;5034814;28;20396;-66
2022/06/11 11:43:24;;;;;;;3.40;1.87;;;;;;;;;;5036250;28;20560;-66
2022/06/11 11:45:56;;;;;;;2.63;2.00;;;;;;;;;;5069218;22;20230;-64
2022/06/11 11:48:30;;;;;;;3.90;1.90;;;;;;;;;;5035651;28;20256;-66
2022/06/11 11:51:00;;;;;;;4.17;1.93;;;;;;;;;;5053458;28;20178;-64
2022/06/11 11:53:28;;;;;;;3.70;2.05;;;;;;;;;;5052269;28;20378;-64
2022/06/11 11:56:06;;;;;;;3.47;2.10;;;;;;;;;;5034690;28;20298;-64
2022/06/11 11:58:34;;;;;;;2.13;1.67;;;;;;;;;;5035428;28;20194;-66
2022/06/11 12:01:02;;;;;;;2.33;1.70;;;;;;;;;;5054174;28;20177;-64
2022/06/11 12:03:35;;;;;;;5.50;1.70;;;;;;;;;;5053867;28;20189;-64
2022/06/11 12:06:02;;;;;;;4.03;1.73;;;;;;;;;;5053669;28;20194;-64
2022/06/11 12:08:30;;;;;;;2.17;1.70;;;;;;;;;;5053480;28;20186;-66
2022/06/11 12:10:58;;;;;;;2.67;1.80;;;;;;;;;;5053171;28;20178;-64
2022/06/11 12:13:44;;;;;;;2.53;1.77;;;;;;;;;;5035267;28;20724;-64
2022/06/11 12:16:16;;;;;;;3.33;1.77;;;;;;;;;;5052865;28;20273;-65
2022/06/11 12:18:45;;;;;;;5.10;2.03;;;;;;;;;;5053028;28;20190;-63
2022/06/11 12:21:20;;;;;;;2.13;1.60;;;;;;;;;;5052967;28;20171;-65
2022/06/11 12:23:49;;;;;;;2.10;1.50;;;;;;;;;;5053159;28;20174;-64
2022/06/11 12:26:25;;;;;;;4.00;1.70;;;;;;;;;;5053101;28;20201;-65
2022/06/11 12:28:58;;;;;;;5.27;1.70;;;;;;;;;;5053312;28;20166;-64
2022/06/11 12:31:24;;;;;;;1.83;1.63;;;;;;;;;;5053373;28;20258;-64
2022/06/11 12:33:51;;;;;;;2.47;1.70;;;;;;;;;;5034890;28;20252;-63
2022/06/11 12:36:20;;;;;;;3.80;1.60;;;;;;;;;;5053510;28;20635;-64
2022/06/11 12:38:54;;;;;;;2.37;1.60;;;;;;;;;;5034912;28;20328;-65
2022/06/11 12:41:35;;;;;;;3.30;2.33;;;;;;;;;;5053106;28;20540;-64
2022/06/11 12:44:21;;;;;;;4.43;1.50;;;;;;;;;;5034905;28;20178;-64
2022/06/11 12:46:52;;;;;;;2.23;1.40;;;;;;;;;;5035243;28;20564;-64
2022/06/11 12:49:29;;;;;;;2.03;1.67;;;;;;;;;;5053327;28;20186;-64
2022/06/11 12:52:11;;;;;;;2.17;1.40;;;;;;;;;;5034986;28;20182;-64
2022/06/11 12:54:45;;;;;;;1.90;1.30;;;;;;;;;;5053495;28;20202;-64
2022/06/11 12:57:29;;;;;;;2.93;1.60;;;;;;;;;;5052683;28;20553;-64
2022/06/11 13:00:11;;;;;;;2.47;1.60;;;;;;;;;;5052933;28;20525;-65
2022/06/11 13:02:57;;;;;;;2.97;1.53;;;;;;;;;;5053084;28;20213;-64
2022/06/11 13:05:28;;;;;;;1.63;1.30;;;;;;;;;;5034774;28;20277;-64
2022/06/11 13:08:06;;;;;;;1.67;1.27;;;;;;;;;;5038341;28;20179;-64
2022/06/11 13:10:51;;;;;;;2.40;1.43;;;;;;;;;;5056407;28;20174;-64
2022/06/11 13:13:23;;;;;;;4.03;1.57;;;;;;;;;;5056541;28;20183;-64
2022/06/11 13:15:58;;;;;;;2.20;1.50;;;;;;;;;;5056274;28;20232;-64
2022/06/11 13:18:33;;;;;;;2.30;1.40;;;;;;;;;;5038366;28;20202;-64
2022/06/11 13:21:04;;;;;;;4.97;1.67;;;;;;;;;;5056787;28;20162;-64
2022/06/11 13:23:42;;;;;;;3.43;1.90;;;;;;;;;;5056549;28;20189;-65
2022/06/11 13:26:10;;;;;;;2.83;1.63;;;;;;;;;;5038278;28;20233;-64
2022/06/11 13:28:55;;;;;;;2.27;1.50;;;;;;;;;;5056015;28;20194;-64
2022/06/11 13:31:34;;;;;;;4.97;2.00;;;;;;;;;;5056206;28;20186;-64
2022/06/11 13:34:00;;;;;;;3.17;1.90;;;;;;;;;;5056100;28;20171;-64
2022/06/11 13:36:35;;;;;;;2.60;1.80;;;;;;;;;;5056037;28;20265;-65
2022/06/11 13:39:16;;;;;;;3.40;1.80;;;;;;;;;;5056171;28;20278;-64
2022/06/11 13:41:42;;;;;;;;;;;;;;;;;;5056400;28;20481;-65
2022/06/11 13:44:14;;;;;;;2.28;1.60;;;;;;;;;;5055699;28;20178;-65
2022/06/11 13:46:51;;;;;;;3.55;2.13;;;;;;;;;;5054877;28;20384;-65
2022/06/11 13:49:25;;;;;;;3.80;2.20;;;;;;;;;;5036684;28;20464;-65
2022/06/11 13:51:55;;;;;;;4.15;2.10;;;;;;;;;;5054692;28;20405;-67
2022/06/11 13:57:26;;;;;;;4.70;2.10;;;;;;;;;;5055942;28;20365;-65
2022/06/11 14:00:11;;;;;;;3.80;1.90;;;;;;;;;;5055540;28;20178;-65
2022/06/11 14:02:55;;;;;;;2.60;1.70;;;;;;;;;;5055629;28;20171;-65
2022/06/11 14:05:22;;;;;;;4.07;1.75;;;;;;;;;;5055475;28;20205;-66
2022/06/11 14:07:49;;;;;;;3.78;1.90;;;;;;;;;;5055766;28;20653;-66
2022/06/11 14:10:21;;;;;;;4.30;2.30;;;;;;;;;;5055740;28;20270;-65
2022/06/11 14:12:47;;;;;;;;;;;;;;;;;;5055759;28;20043;-65
2022/06/11 14:15:12;;;;;;;;;;;;;;;;;;5055623;28;20364;-65
2022/06/11 14:17:38;;;;;;;;;;;;;;;;;;5054816;28;19916;-66
2022/06/11 14:20:04;;;;;;;;;;;;;;;;;;5055585;28;20035;-66
2022/06/11 14:22:30;;;;;;;;;;;;;;;;;;5055550;28;19905;-65
2022/06/11 14:24:57;;;;;;;2.30;1.73;;;;;;;;;;5037246;28;20220;-65
2022/06/11 14:27:40;;;;;;;2.97;2.00;;;;;;;;;;5055196;28;20174;-65
2022/06/11 14:30:12;;;;;;;2.58;1.80;;;;;;;;;;5055327;28;20161;-65
2022/06/11 14:32:42;;;;;;;5.00;1.52;;;;;;;;;;5037208;28;20178;-65
2022/06/11 14:35:13;;;;;;;2.30;1.88;;;;;;;;;;5055092;28;20559;-65
2022/06/11 14:37:40;;;;;;;3.60;1.73;;;;;;;;;;5055185;28;20221;-66
2022/06/11 14:40:12;;;;;;;3.33;1.75;;;;;;;;;;5036994;28;20185;-66
2022/06/11 14:43:13;;;;;;;4.50;2.05;;;;;;;;;;5036881;28;20179;-65
2022/06/11 14:45:44;;;;;;;3.75;1.95;;;;;;;;;;4954514;29;20225;-65
2022/06/11 14:48:20;;;;;;;4.93;1.85;;;;;;;;;;5037887;28;20194;-65
2022/06/11 14:51:12;;;;;;;3.78;2.25;;;;;;;;;;5036710;28;20601;-65
2022/06/11 14:53:46;;;;;;;7.03;2.55;;;;;;;;;;5054935;28;20237;-65
2022/06/11 14:56:32;;;;;;;4.45;2.75;;;;;;;;;;5036809;28;20673;-64
2022/06/11 14:59:09;;;;;;;3.75;2.08;;;;;;;;;;5054676;28;20217;-65
2022/06/11 15:01:47;;;;;;;7.03;3.60;;;;;;;;;;5054556;28;20546;-65
2022/06/11 15:04:32;;;;;;;2.30;2.10;;;;;;;;;;5036284;28;20170;-65
2022/06/11 15:07:16;;;;;;;4.00;2.22;;;;;;;;;;5054381;28;20181;-65
2022/06/11 15:10:04;;;;;;;2.67;1.83;;;;;;;;;;5036465;28;20177;-65
2022/06/11 15:12:46;;;;;;;3.70;2.28;;;;;;;;;;5054203;28;20173;-65